Time;durP1;ratioP1;P1;durP2;ratioP2;P2;SDS_P1;SDS_P2;PMS_P1;PMS_P2;Temp;Humidity;BMP_temperature;BMP_pressure;BME280_temperature;BME280_humidity;BME280_pressure;Samples;Min_cycle;Max_cycle;Signal;HPM_P1;HPM_P2
2022/05/17 00:00:01;;;;;;;;;;;;;;;;;;1043889;28;4110;-55
2022/05/17 00:00:31;;;;;;;;;;;;;;;;;;1044725;28;3762;-52
2022/05/17 00:01:06;;;;;;;;;;;;;;;;;;1043894;28;3904;-49
2022/05/17 00:01:37;;;;;;;;;;;;;;;;;;1042981;28;3955;-53
2022/05/17 00:02:07;;;;;;;;;;;;;;;;;;1044751;28;4120;-53
2022/05/17 00:02:38;;;;;;;;;;;;;;;;;;1043863;28;4269;-53
2022/05/17 00:03:08;;;;;;;;;;;;;;;;;;1039764;28;3869;-49
2022/05/17 00:03:39;;;;;;;;;;;;;;;;;;1038096;28;4136;-55
2022/05/17 00:04:11;;;;;;;;;;;;;;;;;;1039382;28;3914;-50
2022/05/17 00:04:41;;;;;;;;;;;;;;;;;;1037325;28;4576;-51
2022/05/17 00:05:13;;;;;;;;;;;;;;;;;;1044385;28;4235;-53
2022/05/17 00:05:43;;;;;;;;;;;;;;;;;;1042704;28;3886;-53
2022/05/17 00:06:14;;;;;;;;;;;;;;;;;;1044701;28;3734;-51
2022/05/17 00:06:44;;;;;;;;;;;;;;;;;;1043412;28;3976;-48
2022/05/17 00:07:14;;;;;;;;;;;;;;;;;;1044280;28;3909;-53
2022/05/17 00:07:51;;;;;;;;;;;;;;;;;;1043011;28;4039;-52
2022/05/17 00:08:21;;;;;;;;;;;;;;;;;;1044266;28;3835;-53
2022/05/17 00:08:52;;;;;;;;;;;;;;;;;;1043012;28;4174;-52
2022/05/17 00:09:22;;;;;;;;;;;;;;;;;;1044047;28;3726;-52
2022/05/17 00:09:53;;;;;;;;;;;;;;;;;;1043236;28;4042;-48
2022/05/17 00:10:24;;;;;;;;;;;;;;;;;;1044671;28;3742;-52
2022/05/17 00:10:54;;;;;;;;;;;;;;;;;;1043714;28;4207;-50
2022/05/17 00:11:25;;;;;;;;;;;;;;;;;;1046578;28;2873;-49
2022/05/17 00:11:59;;;;;;;;;;;;;;;;;;1043860;28;3934;-51
2022/05/17 00:12:29;;;;;;;;;;;;;;;;;;1044210;28;3985;-49
2022/05/17 00:12:59;;;;;;;;;;;;;;;;;;1043568;28;3988;-50
2022/05/17 00:13:36;;;;;;;;;;;;;;;;;;1043608;28;3708;-52
2022/05/17 00:14:07;;;;;;;;;;;;;;;;;;1041207;28;3897;-53
2022/05/17 00:14:38;;;;;;;;;;;;;;;;;;1034561;28;3846;-50
2022/05/17 00:15:08;;;;;;;;;;;;;;;;;;1036483;28;4094;-48
2022/05/17 00:15:40;;;;;;;;;;;;;;;;;;1029439;28;6438;-54
2022/05/17 00:16:11;;;;;;;;;;;;;;;;;;1035529;28;4585;-48
2022/05/17 00:16:49;;;;;;;;;;;;;;;;;;1038028;28;3961;-51
2022/05/17 00:17:19;;;;;;;;;;;;;;;;;;1040298;28;4193;-55
2022/05/17 00:17:50;;;;;;;;;;;;;;;;;;1042227;28;4105;-55
2022/05/17 00:18:21;;;;;;;;;;;;;;;;;;1040041;28;4118;-49
2022/05/17 00:18:51;;;;;;;;;;;;;;;;;;1039871;28;4516;-51
2022/05/17 00:19:22;;;;;;;;;;;;;;;;;;1036001;28;4059;-49
2022/05/17 00:19:52;;;;;;;;;;;;;;;;;;1034045;28;4372;-50
2022/05/17 00:20:23;;;;;;;;;;;;;;;;;;1041028;28;4145;-53
2022/05/17 00:20:53;;;;;;;;;;;;;;;;;;1036569;28;6967;-47
2022/05/17 00:21:24;;;;;;;;;;;;;;;;;;1043051;28;4192;-51
2022/05/17 00:21:54;;;;;;;;;;;;;;;;;;1042952;28;6362;-54
2022/05/17 00:22:24;;;;;;;;;;;;;;;;;;1042818;28;4043;-49
2022/05/17 00:22:55;;;;;;;;;;;;;;;;;;1043912;28;4399;-50
2022/05/17 00:23:26;;;;;;;;;;;;;;;;;;1043480;28;4157;-50
2022/05/17 00:23:56;;;;;;;;;;;;;;;;;;1043425;28;3775;-51
2022/05/17 00:24:27;;;;;;;;;;;;;;;;;;1043688;28;3894;-53
2022/05/17 00:24:57;;;;;;;;;;;;;;;;;;1044120;28;3869;-53
2022/05/17 00:25:27;;;;;;;;;;;;;;;;;;1044253;28;3786;-52
2022/05/17 00:25:58;;;;;;;;;;;;;;;;;;1043388;28;3942;-52
2022/05/17 00:26:28;;;;;;;;;;;;;;;;;;1044305;28;3791;-51
2022/05/17 00:26:59;;;;;;;;;;;;;;;;;;1043816;28;4044;-50
2022/05/17 00:27:29;;;;;;;;;;;;;;;;;;1042083;28;3834;-50
2022/05/17 00:28:23;;;;;;;;;;;;;;;;;;1043606;28;3887;-51
2022/05/17 00:28:54;;;;;;;;;;;;;;;;;;1043914;28;5154;-50
2022/05/17 00:29:24;;;;;;;;;;;;;;;;;;1044703;28;3702;-48
2022/05/17 00:29:55;;;;;;;;;;;;;;;;;;1043350;28;4183;-49
2022/05/17 00:30:25;;;;;;;;;;;;;;;;;;1044319;28;3827;-54
2022/05/17 00:30:56;;;;;;;;;;;;;;;;;;1043219;28;3855;-50
2022/05/17 00:31:26;;;;;;;;;;;;;;;;;;1043161;28;3827;-52
2022/05/17 00:31:57;;;;;;;;;;;;;;;;;;1043395;28;4209;-49
2022/05/17 00:32:27;;;;;;;;;;;;;;;;;;1043634;28;3935;-50
2022/05/17 00:32:57;;;;;;;;;;;;;;;;;;1043414;28;3968;-52
2022/05/17 00:33:27;;;;;;;;;;;;;;;;;;1043218;28;4032;-50
2022/05/17 00:33:58;;;;;;;;;;;;;;;;;;1040144;28;4121;-52
2022/05/17 00:34:29;;;;;;;;;;;;;;;;;;1043567;28;3966;-56
2022/05/17 00:34:59;;;;;;;;;;;;;;;;;;1040272;28;4115;-53
2022/05/17 00:35:31;;;;;;;;;;;;;;;;;;1044270;28;4941;-51
2022/05/17 00:36:02;;;;;;;;;;;;;;;;;;1040409;28;4711;-50
2022/05/17 00:36:32;;;;;;;;;;;;;;;;;;1042961;28;3556;-49
2022/05/17 00:37:03;;;;;;;;;;;;;;;;;;1042379;28;3971;-49
2022/05/17 00:37:33;;;;;;;;;;;;;;;;;;1040138;28;4164;-53
2022/05/17 00:38:04;;;;;;;;;;;;;;;;;;1042771;28;4295;-51
2022/05/17 00:38:34;;;;;;;;;;;;;;;;;;1037963;28;4089;-49
2022/05/17 00:39:04;;;;;;;;;;;;;;;;;;1038419;28;4025;-52
2022/05/17 00:39:35;;;;;;;;;;;;;;;;;;1038605;28;3930;-48
2022/05/17 00:40:06;;;;;;;;;;;;;;;;;;1037963;28;4176;-46
2022/05/17 00:40:36;;;;;;;;;;;;;;;;;;1043162;28;4271;-49
2022/05/17 00:41:06;;;;;;;;;;;;;;;;;;1036958;28;5190;-52
2022/05/17 00:41:37;;;;;;;;;;;;;;;;;;1036658;28;6537;-50
2022/05/17 00:42:07;;;;;;;;;;;;;;;;;;1038486;28;3888;-46
2022/05/17 00:42:37;;;;;;;;;;;;;;;;;;1038485;28;3868;-43
2022/05/17 00:43:08;;;;;;;;;;;;;;;;;;1043178;28;3754;-50
2022/05/17 00:44:43;;;;;;;;;;;;;;;;;;1044442;28;4106;-48
2022/05/17 00:45:13;;;;;;;;;;;;;;;;;;1039643;28;3909;-49
2022/05/17 00:45:46;;;;;;;;;;;;;;;;;;1038673;28;3915;-51
2022/05/17 00:46:17;;;;;;;;;;;;;;;;;;1039949;28;4110;-54
2022/05/17 00:46:56;;;;;;;;;;;;;;;;;;1038471;28;3930;-49
2022/05/17 00:47:29;;;;;;;;;;;;;;;;;;1045246;28;3711;-45
2022/05/17 00:48:06;;;;;;;;;;;;;;;;;;1043631;28;4271;-46
2022/05/17 00:48:36;;;;;;;;;;;;;;;;;;1042889;28;3982;-55
2022/05/17 00:49:08;;;;;;;;;;;;;;;;;;1044360;28;4401;-50
2022/05/17 00:49:48;;;;;;;;;;;;;;;;;;1044233;28;3818;-52
2022/05/17 00:50:22;;;;;;;;;;;;;;;;;;1042980;28;3771;-51
2022/05/17 00:50:53;;;;;;;;;;;;;;;;;;1042495;28;4393;-51
2022/05/17 00:51:26;;;;;;;;;;;;;;;;;;1043506;28;3815;-48
2022/05/17 00:51:58;;;;;;;;;;;;;;;;;;1038691;28;4979;-50
2022/05/17 00:52:31;;;;;;;;;;;;;;;;;;1041794;28;3919;-53
2022/05/17 00:53:05;;;;;;;;;;;;;;;;;;1041970;28;4324;-48
2022/05/17 00:53:36;;;;;;;;;;;;;;;;;;1043395;28;4330;-49
2022/05/17 00:54:07;;;;;;;;;;;;;;;;;;1044676;28;3707;-46
2022/05/17 00:54:38;;;;;;;;;;;;;;;;;;1041951;28;4126;-49
2022/05/17 00:55:29;;;;;;;;;;;;;;;;;;1042471;28;3908;-49
2022/05/17 00:56:00;;;;;;;;;;;;;;;;;;1039927;28;3883;-48
2022/05/17 00:56:31;;;;;;;;;;;;;;;;;;1044364;28;3768;-52
2022/05/17 00:57:07;;;;;;;;;;;;;;;;;;1037099;28;4027;-50
2022/05/17 00:57:45;;;;;;;;;;;;;;;;;;1038427;28;3921;-47
2022/05/17 00:58:15;;;;;;;;;;;;;;;;;;1037517;28;3797;-51
2022/05/17 00:58:50;;;;;;;;;;;;;;;;;;1036096;28;3976;-47
2022/05/17 00:59:20;;;;;;;;;;;;;;;;;;1038305;28;3774;-47
2022/05/17 00:59:51;;;;;;;;;;;;;;;;;;1037989;28;4064;-47
2022/05/17 01:00:22;;;;;;;;;;;;;;;;;;1040721;28;3935;-45
2022/05/17 01:01:02;;;;;;;;;;;;;;;;;;1043060;28;3966;-49
2022/05/17 01:01:33;;;;;;;;;;;;;;;;;;1044725;28;3878;-48
2022/05/17 01:02:05;;;;;;;;;;;;;;;;;;1043376;28;3830;-50
2022/05/17 01:02:35;;;;;;;;;;;;;;;;;;1044989;28;4050;-45
2022/05/17 01:03:07;;;;;;;;;;;;;;;;;;1044500;28;3742;-47
2022/05/17 01:03:53;;;;;;;;;;;;;;;;;;1043009;28;4096;-48
2022/05/17 01:04:25;;;;;;;;;;;;;;;;;;1044669;28;3581;-45
2022/05/17 01:04:55;;;;;;;;;;;;;;;;;;1044063;28;3833;-48
2022/05/17 01:05:29;;;;;;;;;;;;;;;;;;1045650;28;3564;-47
2022/05/17 01:06:00;;;;;;;;;;;;;;;;;;1043056;28;4256;-50
2022/05/17 01:06:33;;;;;;;;;;;;;;;;;;1044216;28;4003;-50
2022/05/17 01:07:06;;;;;;;;;;;;;;;;;;1043092;28;3902;-45
2022/05/17 01:07:39;;;;;;;;;;;;;;;;;;1040614;28;4086;-48
2022/05/17 01:08:16;;;;;;;;;;;;;;;;;;1041469;28;3934;-49
2022/05/17 01:08:47;;;;;;;;;;;;;;;;;;1041258;28;3882;-49
2022/05/17 01:09:18;;;;;;;;;;;;;;;;;;1038853;28;3900;-46
2022/05/17 01:09:48;;;;;;;;;;;;;;;;;;1040853;28;4065;-49
2022/05/17 01:10:18;;;;;;;;;;;;;;;;;;1040571;28;3890;-50
2022/05/17 01:10:49;;;;;;;;;;;;;;;;;;1042018;28;3999;-47
2022/05/17 01:11:19;;;;;;;;;;;;;;;;;;1046411;28;3950;-50
2022/05/17 01:11:49;;;;;;;;;;;;;;;;;;1045880;28;3877;-45
2022/05/17 01:12:19;;;;;;;;;;;;;;;;;;1044129;28;3866;-50
2022/05/17 01:15:16;;;;;;;;;;;;;;;;;;1045446;28;3826;-51
2022/05/17 01:15:47;;;;;;;;;;;;;;;;;;1038688;28;3950;-45
2022/05/17 01:16:17;;;;;;;;;;;;;;;;;;1039807;28;3854;-48
2022/05/17 01:16:48;;;;;;;;;;;;;;;;;;1041544;28;3908;-50
2022/05/17 01:17:18;;;;;;;;;;;;;;;;;;1039464;28;3595;-51
2022/05/17 01:17:48;;;;;;;;;;;;;;;;;;1044247;28;3962;-51
2022/05/17 01:18:19;;;;;;;;;;;;;;;;;;1045380;28;3703;-47
2022/05/17 01:18:49;;;;;;;;;;;;;;;;;;1045353;28;4281;-47
2022/05/17 01:19:19;;;;;;;;;;;;;;;;;;1045149;28;3831;-54
2022/05/17 01:19:49;;;;;;;;;;;;;;;;;;1044877;28;4104;-49
2022/05/17 01:20:20;;;;;;;;;;;;;;;;;;1045037;28;3817;-54
2022/05/17 01:20:50;;;;;;;;;;;;;;;;;;1040411;28;3900;-50
2022/05/17 01:21:20;;;;;;;;;;;;;;;;;;1039882;28;3865;-53
2022/05/17 01:21:51;;;;;;;;;;;;;;;;;;1041286;28;3930;-51
2022/05/17 01:22:21;;;;;;;;;;;;;;;;;;1039575;28;3847;-56
2022/05/17 01:22:52;;;;;;;;;;;;;;;;;;1044461;28;3898;-45
2022/05/17 01:23:22;;;;;;;;;;;;;;;;;;1045860;28;3852;-47
2022/05/17 01:23:52;;;;;;;;;;;;;;;;;;1043880;28;4044;-50
2022/05/17 01:24:23;;;;;;;;;;;;;;;;;;1045441;28;3690;-49
2022/05/17 01:24:53;;;;;;;;;;;;;;;;;;1043948;28;4059;-47
2022/05/17 01:25:24;;;;;;;;;;;;;;;;;;1040941;28;3874;-45
2022/05/17 01:25:54;;;;;;;;;;;;;;;;;;1041873;28;3903;-50
2022/05/17 01:26:26;;;;;;;;;;;;;;;;;;1041640;28;3797;-49
2022/05/17 01:27:00;;;;;;;;;;;;;;;;;;1042719;28;4019;-46
2022/05/17 01:27:47;;;;;;;;;;;;;;;;;;1041958;28;4917;-49
2022/05/17 01:28:26;;;;;;;;;;;;;;;;;;1046354;28;3845;-48
2022/05/17 01:28:56;;;;;;;;;;;;;;;;;;1045442;28;3928;-51
2022/05/17 01:29:26;;;;;;;;;;;;;;;;;;1042049;28;3715;-50
2022/05/17 01:29:56;;;;;;;;;;;;;;;;;;1044536;28;3952;-47
2022/05/17 01:30:28;;;;;;;;;;;;;;;;;;1045755;28;3695;-46
2022/05/17 01:31:03;;;;;;;;;;;;;;;;;;1044935;28;4047;-50
2022/05/17 01:31:35;;;;;;;;;;;;;;;;;;1044605;28;3819;-45
2022/05/17 01:32:05;;;;;;;;;;;;;;;;;;1044630;28;3885;-51
2022/05/17 01:32:36;;;;;;;;;;;;;;;;;;1043991;28;3982;-47
2022/05/17 01:33:11;;;;;;;;;;;;;;;;;;1044770;28;3708;-50
2022/05/17 01:33:41;;;;;;;;;;;;;;;;;;1043915;28;3868;-48
2022/05/17 01:34:12;;;;;;;;;;;;;;;;;;1045575;28;3762;-53
2022/05/17 01:34:43;;;;;;;;;;;;;;;;;;1044077;28;3912;-44
2022/05/17 01:35:13;;;;;;;;;;;;;;;;;;1045532;28;3813;-55
2022/05/17 01:35:44;;;;;;;;;;;;;;;;;;1043778;28;4193;-49
2022/05/17 01:36:16;;;;;;;;;;;;;;;;;;1044820;28;3710;-54
2022/05/17 01:36:47;;;;;;;;;;;;;;;;;;1039539;28;3926;-50
2022/05/17 01:37:17;;;;;;;;;;;;;;;;;;1037374;28;3781;-52
2022/05/17 01:37:53;;;;;;;;;;;;;;;;;;1033287;28;4121;-50
2022/05/17 01:38:23;;;;;;;;;;;;;;;;;;1032933;28;3607;-55
2022/05/17 01:38:53;;;;;;;;;;;;;;;;;;1037473;28;3991;-47
2022/05/17 01:39:24;;;;;;;;;;;;;;;;;;1041414;28;3450;-46
2022/05/17 01:39:54;;;;;;;;;;;;;;;;;;1044509;28;3978;-49
2022/05/17 01:40:25;;;;;;;;;;;;;;;;;;1044840;28;3838;-45
2022/05/17 01:40:56;;;;;;;;;;;;;;;;;;1044140;28;4027;-50
2022/05/17 01:41:26;;;;;;;;;;;;;;;;;;1044438;28;4255;-48
2022/05/17 01:41:56;;;;;;;;;;;;;;;;;;1044936;28;4179;-51
2022/05/17 01:42:27;;;;;;;;;;;;;;;;;;1042464;28;4052;-49
2022/05/17 01:42:57;;;;;;;;;;;;;;;;;;1040352;28;4227;-48
2022/05/17 01:43:27;;;;;;;;;;;;;;;;;;1039621;28;4049;-47
2022/05/17 01:43:59;;;;;;;;;;;;;;;;;;1040215;28;3810;-45
2022/05/17 01:44:29;;;;;;;;;;;;;;;;;;1040821;28;3743;-51
2022/05/17 01:45:00;;;;;;;;;;;;;;;;;;1043658;28;4206;-48
2022/05/17 01:45:30;;;;;;;;;;;;;;;;;;1045367;28;4109;-52
2022/05/17 01:46:07;;;;;;;;;;;;;;;;;;1044346;28;4454;-49
2022/05/17 01:46:37;;;;;;;;;;;;;;;;;;1044033;28;4323;-49
2022/05/17 01:47:07;;;;;;;;;;;;;;;;;;1046027;28;3882;-47
2022/05/17 01:47:38;;;;;;;;;;;;;;;;;;1044333;28;3993;-56
2022/05/17 01:48:08;;;;;;;;;;;;;;;;;;1044349;28;3856;-50
2022/05/17 01:48:39;;;;;;;;;;;;;;;;;;1044147;28;4074;-47
2022/05/17 01:49:09;;;;;;;;;;;;;;;;;;1045432;28;3902;-50
2022/05/17 01:49:39;;;;;;;;;;;;;;;;;;1043543;28;5036;-49
2022/05/17 01:50:09;;;;;;;;;;;;;;;;;;1045404;28;4010;-47
2022/05/17 01:50:40;;;;;;;;;;;;;;;;;;1044436;28;4147;-52
2022/05/17 01:51:10;;;;;;;;;;;;;;;;;;1043937;28;4107;-48
2022/05/17 01:51:40;;;;;;;;;;;;;;;;;;1043345;28;4356;-47
2022/05/17 01:52:11;;;;;;;;;;;;;;;;;;1046352;28;4324;-47
2022/05/17 01:52:41;;;;;;;;;;;;;;;;;;1041038;28;3982;-50
2022/05/17 01:53:11;;;;;;;;;;;;;;;;;;1040660;28;2077;-47
2022/05/17 01:53:42;;;;;;;;;;;;;;;;;;1040799;28;4071;-49
2022/05/17 01:54:12;;;;;;;;;;;;;;;;;;1039389;28;3980;-50
2022/05/17 01:54:42;;;;;;;;;;;;;;;;;;1045678;28;3908;-48
2022/05/17 01:55:13;;;;;;;;;;;;;;;;;;1045882;28;1658;-49
2022/05/17 01:55:43;;;;;;;;;;;;;;;;;;1044711;28;3889;-48
2022/05/17 01:56:14;;;;;;;;;;;;;;;;;;1046167;28;3786;-52
2022/05/17 01:56:44;;;;;;;;;;;;;;;;;;1043610;28;4175;-46
2022/05/17 01:57:14;;;;;;;;;;;;;;;;;;1046227;28;2784;-50
2022/05/17 01:57:45;;;;;;;;;;;;;;;;;;1042110;28;4235;-50
2022/05/17 01:58:15;;;;;;;;;;;;;;;;;;1044578;28;3870;-52
2022/05/17 01:58:46;;;;;;;;;;;;;;;;;;1044723;28;3868;-50
2022/05/17 01:59:23;;;;;;;;;;;;;;;;;;1045357;28;3797;-48
2022/05/17 01:59:53;;;;;;;;;;;;;;;;;;1043863;28;3895;-48
2022/05/17 02:00:24;;;;;;;;;;;;;;;;;;1044605;28;4040;-46
2022/05/17 02:00:54;;;;;;;;;;;;;;;;;;1045796;28;3871;-47
2022/05/17 02:01:25;;;;;;;;;;;;;;;;;;1044434;28;3736;-50
2022/05/17 02:01:55;;;;;;;;;;;;;;;;;;1043839;28;4712;-49
2022/05/17 02:02:25;;;;;;;;;;;;;;;;;;1045130;28;3590;-53
2022/05/17 02:02:55;;;;;;;;;;;;;;;;;;1040991;28;3951;-50
2022/05/17 02:03:26;;;;;;;;;;;;;;;;;;1040285;28;3900;-51
2022/05/17 02:03:56;;;;;;;;;;;;;;;;;;1040253;28;4227;-47
2022/05/17 02:04:26;;;;;;;;;;;;;;;;;;1041358;28;3796;-45
2022/05/17 02:04:56;;;;;;;;;;;;;;;;;;1043123;28;4142;-44
2022/05/17 02:05:27;;;;;;;;;;;;;;;;;;1044058;28;3870;-46
2022/05/17 02:05:57;;;;;;;;;;;;;;;;;;1043102;28;4064;-48
2022/05/17 02:06:27;;;;;;;;;;;;;;;;;;1045342;28;4273;-49
2022/05/17 02:06:57;;;;;;;;;;;;;;;;;;1044404;28;3900;-48
2022/05/17 02:07:28;;;;;;;;;;;;;;;;;;1044685;28;3933;-48
2022/05/17 02:07:58;;;;;;;;;;;;;;;;;;1044478;28;4115;-50
2022/05/17 02:08:29;;;;;;;;;;;;;;;;;;1044694;28;3820;-46
2022/05/17 02:09:00;;;;;;;;;;;;;;;;;;1045232;28;3918;-49
2022/05/17 02:09:30;;;;;;;;;;;;;;;;;;1044014;28;3856;-52
2022/05/17 02:10:00;;;;;;;;;;;;;;;;;;1045545;28;4155;-48
2022/05/17 02:10:30;;;;;;;;;;;;;;;;;;1045999;28;3024;-46
2022/05/17 02:11:01;;;;;;;;;;;;;;;;;;1044137;28;3936;-50
2022/05/17 02:11:32;;;;;;;;;;;;;;;;;;1045329;28;4345;-46
2022/05/17 02:12:02;;;;;;;;;;;;;;;;;;1043930;28;4096;-49
2022/05/17 02:12:33;;;;;;;;;;;;;;;;;;1044581;28;3778;-45
2022/05/17 02:13:04;;;;;;;;;;;;;;;;;;1043887;28;3739;-47
2022/05/17 02:13:34;;;;;;;;;;;;;;;;;;1038674;28;4047;-45
2022/05/17 02:14:05;;;;;;;;;;;;;;;;;;1040094;28;3962;-55
2022/05/17 02:14:35;;;;;;;;;;;;;;;;;;1037557;28;4306;-46
2022/05/17 02:15:06;;;;;;;;;;;;;;;;;;1039348;28;4081;-51
2022/05/17 02:15:37;;;;;;;;;;;;;;;;;;1044701;28;4064;-49
2022/05/17 02:16:08;;;;;;;;;;;;;;;;;;1044979;28;3836;-47
2022/05/17 02:16:38;;;;;;;;;;;;;;;;;;1038531;28;4281;-47
2022/05/17 02:17:09;;;;;;;;;;;;;;;;;;1040799;28;3766;-49
2022/05/17 02:17:39;;;;;;;;;;;;;;;;;;1034085;28;4012;-52
2022/05/17 02:18:10;;;;;;;;;;;;;;;;;;1040734;28;3894;-49
2022/05/17 02:18:40;;;;;;;;;;;;;;;;;;1043400;28;4251;-50
2022/05/17 02:19:10;;;;;;;;;;;;;;;;;;1039937;28;3809;-47
2022/05/17 02:19:40;;;;;;;;;;;;;;;;;;1038513;28;5038;-48
2022/05/17 02:20:11;;;;;;;;;;;;;;;;;;1040223;28;3706;-47
2022/05/17 02:20:41;;;;;;;;;;;;;;;;;;1039782;28;5044;-47
2022/05/17 02:21:11;;;;;;;;;;;;;;;;;;1044344;28;3762;-49
2022/05/17 02:21:41;;;;;;;;;;;;;;;;;;1043981;28;4042;-47
2022/05/17 02:22:12;;;;;;;;;;;;;;;;;;1044819;28;3958;-53
2022/05/17 02:23:03;;;;;;;;;;;;;;;;;;1042392;28;4325;-50
2022/05/17 02:23:41;;;;;;;;;;;;;;;;;;1042879;28;3923;-51
2022/05/17 02:24:11;;;;;;;;;;;;;;;;;;1043620;28;3725;-51
2022/05/17 02:24:42;;;;;;;;;;;;;;;;;;1044026;28;4361;-51
2022/05/17 02:25:12;;;;;;;;;;;;;;;;;;1045361;28;3801;-53
2022/05/17 02:25:42;;;;;;;;;;;;;;;;;;1042693;28;4152;-51
2022/05/17 02:26:13;;;;;;;;;;;;;;;;;;1044241;28;3898;-48
2022/05/17 02:26:43;;;;;;;;;;;;;;;;;;1043263;28;4071;-46
2022/05/17 02:27:13;;;;;;;;;;;;;;;;;;1042703;28;3793;-52
2022/05/17 02:27:56;;;;;;;;;;;;;;;;;;1041780;28;4818;-48
2022/05/17 02:28:35;;;;;;;;;;;;;;;;;;1045219;28;4070;-48
2022/05/17 02:29:05;;;;;;;;;;;;;;;;;;1041887;28;3791;-47
2022/05/17 02:29:36;;;;;;;;;;;;;;;;;;1040423;28;4179;-47
2022/05/17 02:30:07;;;;;;;;;;;;;;;;;;1039439;28;3672;-46
2022/05/17 02:30:39;;;;;;;;;;;;;;;;;;1039234;28;4241;-46
2022/05/17 02:31:11;;;;;;;;;;;;;;;;;;1040581;28;3680;-51
2022/05/17 02:31:41;;;;;;;;;;;;;;;;;;1038549;28;3813;-49
2022/05/17 02:32:14;;;;;;;;;;;;;;;;;;1040326;28;3754;-48
2022/05/17 02:32:44;;;;;;;;;;;;;;;;;;1040001;28;3845;-46
2022/05/17 02:33:14;;;;;;;;;;;;;;;;;;1039655;28;3723;-51
2022/05/17 02:33:45;;;;;;;;;;;;;;;;;;1039928;28;3897;-46
2022/05/17 02:34:16;;;;;;;;;;;;;;;;;;1039788;28;3868;-50
2022/05/17 02:34:46;;;;;;;;;;;;;;;;;;1038868;28;3940;-46
2022/05/17 02:35:17;;;;;;;;;;;;;;;;;;1040131;28;4246;-48
2022/05/17 02:35:47;;;;;;;;;;;;;;;;;;1037997;28;4209;-44
2022/05/17 02:36:24;;;;;;;;;;;;;;;;;;1040028;28;3759;-48
2022/05/17 02:36:54;;;;;;;;;;;;;;;;;;1040144;28;4047;-45
2022/05/17 02:37:24;;;;;;;;;;;;;;;;;;1039484;28;3606;-53
2022/05/17 02:37:55;;;;;;;;;;;;;;;;;;1038270;28;3959;-53
2022/05/17 02:38:26;;;;;;;;;;;;;;;;;;1040920;28;3857;-44
2022/05/17 02:38:56;;;;;;;;;;;;;;;;;;1039720;28;3920;-50
2022/05/17 02:39:27;;;;;;;;;;;;;;;;;;1038797;28;3420;-48
2022/05/17 02:39:57;;;;;;;;;;;;;;;;;;1039624;28;4246;-49
2022/05/17 02:40:27;;;;;;;;;;;;;;;;;;1039613;28;4600;-49
2022/05/17 02:40:57;;;;;;;;;;;;;;;;;;1039724;28;4200;-50
2022/05/17 02:41:28;;;;;;;;;;;;;;;;;;1040042;28;3572;-47
2022/05/17 02:41:58;;;;;;;;;;;;;;;;;;1040522;28;3802;-46
2022/05/17 02:42:28;;;;;;;;;;;;;;;;;;1040761;28;3761;-48
2022/05/17 02:42:58;;;;;;;;;;;;;;;;;;1040268;28;3916;-47
2022/05/17 02:43:29;;;;;;;;;;;;;;;;;;1040198;28;3746;-47
2022/05/17 02:44:00;;;;;;;;;;;;;;;;;;1044191;28;4059;-48
2022/05/17 02:44:30;;;;;;;;;;;;;;;;;;1044252;28;3829;-49
2022/05/17 02:45:00;;;;;;;;;;;;;;;;;;1042926;28;4074;-49
2022/05/17 02:45:31;;;;;;;;;;;;;;;;;;1044610;28;3636;-49
2022/05/17 02:46:01;;;;;;;;;;;;;;;;;;1040984;28;4012;-48
2022/05/17 02:46:32;;;;;;;;;;;;;;;;;;1038123;28;3906;-49
2022/05/17 02:47:02;;;;;;;;;;;;;;;;;;1039084;28;3985;-50
2022/05/17 02:47:32;;;;;;;;;;;;;;;;;;1039122;28;3755;-47
2022/05/17 02:48:03;;;;;;;;;;;;;;;;;;1038506;28;3928;-50
2022/05/17 02:48:33;;;;;;;;;;;;;;;;;;1041006;28;4122;-50
2022/05/17 02:49:04;;;;;;;;;;;;;;;;;;1040256;28;3806;-48
2022/05/17 02:49:34;;;;;;;;;;;;;;;;;;1040744;28;3916;-45
2022/05/17 02:50:05;;;;;;;;;;;;;;;;;;1039586;28;3724;-44
2022/05/17 02:50:35;;;;;;;;;;;;;;;;;;1037593;28;4007;-48
2022/05/17 02:51:10;;;;;;;;;;;;;;;;;;1037588;28;4574;-55
2022/05/17 02:51:40;;;;;;;;;;;;;;;;;;1038940;28;4078;-49
2022/05/17 02:52:11;;;;;;;;;;;;;;;;;;1040904;28;4066;-46
2022/05/17 02:52:41;;;;;;;;;;;;;;;;;;1039372;28;3854;-47
2022/05/17 02:53:12;;;;;;;;;;;;;;;;;;1040829;28;3846;-50
2022/05/17 02:53:42;;;;;;;;;;;;;;;;;;1039373;28;3889;-48
2022/05/17 02:54:12;;;;;;;;;;;;;;;;;;1039692;28;3667;-46
2022/05/17 02:54:43;;;;;;;;;;;;;;;;;;1040206;28;4166;-47
2022/05/17 02:55:13;;;;;;;;;;;;;;;;;;1040542;28;3930;-50
2022/05/17 02:55:44;;;;;;;;;;;;;;;;;;1038803;28;4103;-49
2022/05/17 02:56:14;;;;;;;;;;;;;;;;;;1040348;28;3806;-46
2022/05/17 02:56:44;;;;;;;;;;;;;;;;;;1038524;28;4241;-51
2022/05/17 02:57:15;;;;;;;;;;;;;;;;;;1037669;28;3782;-49
2022/05/17 02:57:45;;;;;;;;;;;;;;;;;;1039746;28;4031;-47
2022/05/17 02:58:15;;;;;;;;;;;;;;;;;;1038750;28;4421;-49
2022/05/17 02:58:45;;;;;;;;;;;;;;;;;;1038271;28;4095;-49
2022/05/17 02:59:18;;;;;;;;;;;;;;;;;;1041383;28;4064;-49
2022/05/17 02:59:48;;;;;;;;;;;;;;;;;;1037979;28;4205;-50
2022/05/17 03:00:19;;;;;;;;;;;;;;;;;;1040059;28;4636;-49
2022/05/17 03:00:49;;;;;;;;;;;;;;;;;;1039559;28;4298;-48
2022/05/17 03:01:19;;;;;;;;;;;;;;;;;;1040937;28;4204;-46
2022/05/17 03:01:49;;;;;;;;;;;;;;;;;;1038379;28;4166;-48
2022/05/17 03:02:20;;;;;;;;;;;;;;;;;;1037923;28;3930;-46
2022/05/17 03:02:50;;;;;;;;;;;;;;;;;;1038285;28;4183;-48
2022/05/17 03:03:20;;;;;;;;;;;;;;;;;;1038403;28;4047;-46
2022/05/17 03:03:51;;;;;;;;;;;;;;;;;;1038957;28;4122;-48
2022/05/17 03:04:21;;;;;;;;;;;;;;;;;;1040290;28;3953;-45
2022/05/17 03:04:51;;;;;;;;;;;;;;;;;;1040495;28;4165;-49
2022/05/17 03:05:22;;;;;;;;;;;;;;;;;;1041302;28;4387;-48
2022/05/17 03:05:52;;;;;;;;;;;;;;;;;;1040199;28;4089;-46
2022/05/17 03:06:22;;;;;;;;;;;;;;;;;;1039482;28;4281;-52
2022/05/17 03:06:53;;;;;;;;;;;;;;;;;;1040395;28;4482;-54
2022/05/17 03:07:23;;;;;;;;;;;;;;;;;;1040648;28;2747;-45
2022/05/17 03:07:54;;;;;;;;;;;;;;;;;;1037666;28;4090;-48
2022/05/17 03:08:24;;;;;;;;;;;;;;;;;;1038367;28;4344;-47
2022/05/17 03:08:54;;;;;;;;;;;;;;;;;;1038902;28;4328;-51
2022/05/17 03:09:24;;;;;;;;;;;;;;;;;;1040794;28;3794;-49
2022/05/17 03:09:54;;;;;;;;;;;;;;;;;;1040777;28;3869;-48
2022/05/17 03:10:26;;;;;;;;;;;;;;;;;;1042009;28;2096;-46
2022/05/17 03:10:56;;;;;;;;;;;;;;;;;;1041348;28;3885;-46
2022/05/17 03:11:26;;;;;;;;;;;;;;;;;;1041348;28;2918;-47
2022/05/17 03:11:57;;;;;;;;;;;;;;;;;;1039686;28;3828;-46
2022/05/17 03:12:27;;;;;;;;;;;;;;;;;;1040918;28;3977;-47
2022/05/17 03:12:57;;;;;;;;;;;;;;;;;;1039394;28;3983;-48
2022/05/17 03:13:28;;;;;;;;;;;;;;;;;;1038406;28;4011;-48
2022/05/17 03:13:58;;;;;;;;;;;;;;;;;;1040150;28;4389;-47
2022/05/17 03:14:29;;;;;;;;;;;;;;;;;;1039715;28;3986;-49
2022/05/17 03:15:00;;;;;;;;;;;;;;;;;;1039935;28;3891;-44
2022/05/17 03:15:30;;;;;;;;;;;;;;;;;;1040427;28;3738;-47
2022/05/17 03:16:01;;;;;;;;;;;;;;;;;;1039281;28;3811;-49
2022/05/17 03:16:32;;;;;;;;;;;;;;;;;;1040384;28;3306;-51
2022/05/17 03:17:12;;;;;;;;;;;;;;;;;;1041707;28;3851;-47
2022/05/17 03:17:43;;;;;;;;;;;;;;;;;;1040415;28;4190;-50
2022/05/17 03:18:13;;;;;;;;;;;;;;;;;;1041562;28;3734;-46
2022/05/17 03:18:43;;;;;;;;;;;;;;;;;;1041426;28;3884;-46
2022/05/17 03:19:14;;;;;;;;;;;;;;;;;;1042336;28;3151;-48
2022/05/17 03:19:44;;;;;;;;;;;;;;;;;;1041197;28;3833;-47
2022/05/17 03:20:15;;;;;;;;;;;;;;;;;;1043035;28;1603;-45
2022/05/17 03:20:47;;;;;;;;;;;;;;;;;;1039902;28;3920;-48
2022/05/17 03:21:17;;;;;;;;;;;;;;;;;;1036965;28;4088;-50
2022/05/17 03:21:48;;;;;;;;;;;;;;;;;;1034230;28;3931;-48
2022/05/17 03:22:19;;;;;;;;;;;;;;;;;;1037534;28;3957;-48
2022/05/17 03:22:49;;;;;;;;;;;;;;;;;;1039225;28;4281;-51
2022/05/17 03:23:20;;;;;;;;;;;;;;;;;;1042443;28;3629;-50
2022/05/17 03:23:50;;;;;;;;;;;;;;;;;;1041526;28;3928;-51
2022/05/17 03:24:20;;;;;;;;;;;;;;;;;;1040402;28;3430;-50
2022/05/17 03:24:51;;;;;;;;;;;;;;;;;;1038246;28;4122;-47
2022/05/17 03:25:23;;;;;;;;;;;;;;;;;;1039775;28;4416;-48
2022/05/17 03:25:53;;;;;;;;;;;;;;;;;;1041018;28;5184;-51
2022/05/17 03:26:23;;;;;;;;;;;;;;;;;;1040801;28;3729;-45
2022/05/17 03:26:54;;;;;;;;;;;;;;;;;;1038439;28;4091;-47
2022/05/17 03:27:24;;;;;;;;;;;;;;;;;;1040986;28;3969;-48
2022/05/17 03:28:07;;;;;;;;;;;;;;;;;;1041419;28;4070;-48
2022/05/17 03:28:45;;;;;;;;;;;;;;;;;;1042219;28;3981;-49
2022/05/17 03:29:15;;;;;;;;;;;;;;;;;;1044221;28;3893;-47
2022/05/17 03:29:46;;;;;;;;;;;;;;;;;;1043351;28;5227;-45
2022/05/17 03:30:16;;;;;;;;;;;;;;;;;;1044774;28;4122;-48
2022/05/17 03:30:46;;;;;;;;;;;;;;;;;;1043473;28;4203;-53
2022/05/17 03:31:17;;;;;;;;;;;;;;;;;;1045121;28;3717;-45
2022/05/17 03:31:47;;;;;;;;;;;;;;;;;;1043166;28;4073;-53
2022/05/17 03:32:17;;;;;;;;;;;;;;;;;;1044411;28;3869;-54
2022/05/17 03:32:48;;;;;;;;;;;;;;;;;;1043581;28;4924;-48
2022/05/17 03:33:18;;;;;;;;;;;;;;;;;;1043966;28;3858;-48
2022/05/17 03:33:48;;;;;;;;;;;;;;;;;;1045293;28;4237;-49
2022/05/17 03:34:18;;;;;;;;;;;;;;;;;;1045635;28;3925;-47
2022/05/17 03:34:49;;;;;;;;;;;;;;;;;;1035893;28;4017;-45
2022/05/17 03:35:19;;;;;;;;;;;;;;;;;;1037128;28;3653;-45
2022/05/17 03:35:56;;;;;;;;;;;;;;;;;;1036693;28;3934;-46
2022/05/17 03:36:26;;;;;;;;;;;;;;;;;;1039588;28;3684;-47
2022/05/17 03:36:56;;;;;;;;;;;;;;;;;;1043777;28;3908;-49
2022/05/17 03:37:27;;;;;;;;;;;;;;;;;;1044110;28;3840;-46
2022/05/17 03:37:57;;;;;;;;;;;;;;;;;;1038427;28;4063;-49
2022/05/17 03:38:28;;;;;;;;;;;;;;;;;;1040882;28;3943;-48
2022/05/17 03:38:58;;;;;;;;;;;;;;;;;;1039365;28;3892;-50
2022/05/17 03:39:28;;;;;;;;;;;;;;;;;;1040989;28;3801;-51
2022/05/17 03:39:58;;;;;;;;;;;;;;;;;;1045932;28;4303;-50
2022/05/17 03:40:29;;;;;;;;;;;;;;;;;;1044542;28;3545;-47